sensor_id;sensor_type;location;lat;lon;timestamp;P1;durP1;ratioP1;P2;durP2;ratioP2
61204;SDS011;47068;55.780;37.520;2022-08-23T00:00:58;25.63;;;11.63;;
61204;SDS011;47068;55.780;37.520;2022-08-23T00:03:24;21.77;;;11.43;;
61204;SDS011;47068;55.780;37.520;2022-08-23T00:05:50;22.23;;;11.20;;
61204;SDS011;47068;55.780;37.520;2022-08-23T00:08:15;21.45;;;11.52;;
61204;SDS011;47068;55.780;37.520;2022-08-23T00:10:41;28.38;;;11.98;;
61204;SDS011;47068;55.780;37.520;2022-08-23T00:13:06;25.23;;;11.35;;
61204;SDS011;47068;55.780;37.520;2022-08-23T00:15:34;22.45;;;11.48;;
61204;SDS011;47068;55.780;37.520;2022-08-23T00:18:00;21.85;;;10.70;;
61204;SDS011;47068;55.780;37.520;2022-08-23T00:20:25;24.40;;;11.40;;
61204;SDS011;47068;55.780;37.520;2022-08-23T00:22:51;16.85;;;10.32;;
61204;SDS011;47068;55.780;37.520;2022-08-23T00:25:19;30.35;;;11.20;;
61204;SDS011;47068;55.780;37.520;2022-08-23T00:27:45;27.25;;;11.32;;
61204;SDS011;47068;55.780;37.520;2022-08-23T00:30:11;22.33;;;11.02;;
61204;SDS011;47068;55.780;37.520;2022-08-23T00:32:38;21.52;;;10.30;;
61204;SDS011;47068;55.780;37.520;2022-08-23T00:35:05;22.08;;;10.73;;
61204;SDS011;47068;55.780;37.520;2022-08-23T00:37:32;21.92;;;12.30;;
61204;SDS011;47068;55.780;37.520;2022-08-23T00:39:58;30.73;;;12.20;;
61204;SDS011;47068;55.780;37.520;2022-08-23T00:42:29;24.98;;;11.30;;
61204;SDS011;47068;55.780;37.520;2022-08-23T00:45:19;22.73;;;11.93;;
61204;SDS011;47068;55.780;37.520;2022-08-23T00:48:10;21.00;;;10.18;;
61204;SDS011;47068;55.780;37.520;2022-08-23T00:50:39;20.40;;;11.38;;
61204;SDS011;47068;55.780;37.520;2022-08-23T00:53:14;24.92;;;11.77;;
61204;SDS011;47068;55.780;37.520;2022-08-23T00:55:44;22.90;;;10.32;;
61204;SDS011;47068;55.780;37.520;2022-08-23T00:58:13;26.90;;;12.13;;
61204;SDS011;47068;55.780;37.520;2022-08-23T01:00:40;28.45;;;10.40;;
61204;SDS011;47068;55.780;37.520;2022-08-23T01:03:06;18.20;;;9.63;;
61204;SDS011;47068;55.780;37.520;2022-08-23T01:06:18;26.00;;;10.07;;
61204;SDS011;47068;55.780;37.520;2022-08-23T01:08:45;20.48;;;10.05;;
61204;SDS011;47068;55.780;37.520;2022-08-23T01:13:49;25.67;;;11.73;;
61204;SDS011;47068;55.780;37.520;2022-08-23T01:16:23;26.38;;;12.02;;
61204;SDS011;47068;55.780;37.520;2022-08-23T01:19:24;28.73;;;10.73;;
61204;SDS011;47068;55.780;37.520;2022-08-23T01:21:58;21.40;;;9.80;;
61204;SDS011;47068;55.780;37.520;2022-08-23T01:24:33;19.83;;;10.63;;
61204;SDS011;47068;55.780;37.520;2022-08-23T01:29:24;30.75;;;11.82;;
61204;SDS011;47068;55.780;37.520;2022-08-23T01:34:15;19.75;;;9.95;;
61204;SDS011;47068;55.780;37.520;2022-08-23T01:36:42;23.80;;;10.70;;
61204;SDS011;47068;55.780;37.520;2022-08-23T01:39:09;22.52;;;10.70;;
61204;SDS011;47068;55.780;37.520;2022-08-23T01:41:34;27.30;;;12.15;;
61204;SDS011;47068;55.780;37.520;2022-08-23T01:44:03;23.13;;;11.85;;
61204;SDS011;47068;55.780;37.520;2022-08-23T01:46:32;29.58;;;11.38;;
61204;SDS011;47068;55.780;37.520;2022-08-23T01:48:57;21.63;;;11.18;;
61204;SDS011;47068;55.780;37.520;2022-08-23T01:51:24;23.23;;;11.13;;
61204;SDS011;47068;55.780;37.520;2022-08-23T01:53:49;26.42;;;10.57;;
61204;SDS011;47068;55.780;37.520;2022-08-23T01:56:16;26.13;;;11.45;;
61204;SDS011;47068;55.780;37.520;2022-08-23T01:58:46;20.45;;;10.82;;
61204;SDS011;47068;55.780;37.520;2022-08-23T02:01:13;19.05;;;10.05;;
61204;SDS011;47068;55.780;37.520;2022-08-23T02:03:39;19.65;;;9.38;;
61204;SDS011;47068;55.780;37.520;2022-08-23T02:06:05;24.13;;;9.85;;
61204;SDS011;47068;55.780;37.520;2022-08-23T02:08:31;21.80;;;10.27;;
61204;SDS011;47068;55.780;37.520;2022-08-23T02:11:16;18.27;;;10.02;;
61204;SDS011;47068;55.780;37.520;2022-08-23T02:13:46;25.15;;;11.95;;
61204;SDS011;47068;55.780;37.520;2022-08-23T02:16:12;23.63;;;10.25;;
61204;SDS011;47068;55.780;37.520;2022-08-23T02:18:45;25.88;;;10.57;;
61204;SDS011;47068;55.780;37.520;2022-08-23T02:21:11;17.63;;;9.82;;
61204;SDS011;47068;55.780;37.520;2022-08-23T02:26:01;26.20;;;10.60;;
61204;SDS011;47068;55.780;37.520;2022-08-23T02:28:27;22.48;;;9.80;;
61204;SDS011;47068;55.780;37.520;2022-08-23T02:33:18;31.88;;;10.45;;
61204;SDS011;47068;55.780;37.520;2022-08-23T02:38:10;23.33;;;10.25;;
61204;SDS011;47068;55.780;37.520;2022-08-23T02:40:37;16.60;;;9.27;;
61204;SDS011;47068;55.780;37.520;2022-08-23T02:43:04;19.77;;;9.00;;
61204;SDS011;47068;55.780;37.520;2022-08-23T02:45:31;21.80;;;10.05;;
61204;SDS011;47068;55.780;37.520;2022-08-23T02:47:56;25.75;;;10.35;;
61204;SDS011;47068;55.780;37.520;2022-08-23T02:50:23;23.42;;;10.73;;
61204;SDS011;47068;55.780;37.520;2022-08-23T02:52:49;21.45;;;11.45;;
61204;SDS011;47068;55.780;37.520;2022-08-23T02:55:14;22.73;;;10.52;;
61204;SDS011;47068;55.780;37.520;2022-08-23T03:00:07;26.50;;;10.35;;
61204;SDS011;47068;55.780;37.520;2022-08-23T03:02:35;20.90;;;9.30;;
61204;SDS011;47068;55.780;37.520;2022-08-23T03:05:03;18.80;;;9.48;;
61204;SDS011;47068;55.780;37.520;2022-08-23T03:07:30;16.50;;;8.90;;
61204;SDS011;47068;55.780;37.520;2022-08-23T03:12:21;20.17;;;9.00;;
61204;SDS011;47068;55.780;37.520;2022-08-23T03:17:12;21.85;;;9.52;;
61204;SDS011;47068;55.780;37.520;2022-08-23T03:19:38;21.48;;;10.38;;
61204;SDS011;47068;55.780;37.520;2022-08-23T03:22:03;25.50;;;10.85;;
61204;SDS011;47068;55.780;37.520;2022-08-23T03:24:29;25.33;;;10.50;;
61204;SDS011;47068;55.780;37.520;2022-08-23T03:26:54;25.27;;;10.45;;
61204;SDS011;47068;55.780;37.520;2022-08-23T03:31:46;23.67;;;10.02;;
61204;SDS011;47068;55.780;37.520;2022-08-23T03:34:11;25.08;;;10.30;;
61204;SDS011;47068;55.780;37.520;2022-08-23T03:39:03;24.02;;;10.35;;
61204;SDS011;47068;55.780;37.520;2022-08-23T03:41:29;23.10;;;11.25;;
61204;SDS011;47068;55.780;37.520;2022-08-23T03:46:20;15.77;;;9.30;;
61204;SDS011;47068;55.780;37.520;2022-08-23T03:48:58;23.92;;;10.45;;
61204;SDS011;47068;55.780;37.520;2022-08-23T03:51:26;20.40;;;10.10;;
61204;SDS011;47068;55.780;37.520;2022-08-23T03:53:53;22.13;;;10.40;;
61204;SDS011;47068;55.780;37.520;2022-08-23T03:58:50;24.08;;;10.95;;
61204;SDS011;47068;55.780;37.520;2022-08-23T04:01:17;18.35;;;9.55;;
61204;SDS011;47068;55.780;37.520;2022-08-23T04:06:08;21.27;;;8.88;;
61204;SDS011;47068;55.780;37.520;2022-08-23T04:08:35;20.60;;;8.85;;
61204;SDS011;47068;55.780;37.520;2022-08-23T04:13:26;18.08;;;9.43;;
61204;SDS011;47068;55.780;37.520;2022-08-23T04:15:54;25.90;;;9.38;;
61204;SDS011;47068;55.780;37.520;2022-08-23T04:18:21;15.70;;;8.20;;
61204;SDS011;47068;55.780;37.520;2022-08-23T04:23:12;22.67;;;8.85;;
61204;SDS011;47068;55.780;37.520;2022-08-23T04:28:04;24.30;;;8.57;;
61204;SDS011;47068;55.780;37.520;2022-08-23T04:32:56;17.73;;;8.75;;
61204;SDS011;47068;55.780;37.520;2022-08-23T04:37:47;25.10;;;8.77;;
61204;SDS011;47068;55.780;37.520;2022-08-23T04:42:57;17.58;;;8.57;;
61204;SDS011;47068;55.780;37.520;2022-08-23T04:47:48;17.75;;;7.75;;
61204;SDS011;47068;55.780;37.520;2022-08-23T04:50:13;18.67;;;8.05;;
61204;SDS011;47068;55.780;37.520;2022-08-23T04:55:05;22.55;;;9.38;;
61204;SDS011;47068;55.780;37.520;2022-08-23T04:57:30;18.10;;;8.50;;
61204;SDS011;47068;55.780;37.520;2022-08-23T04:59:56;24.60;;;9.82;;
61204;SDS011;47068;55.780;37.520;2022-08-23T05:02:22;13.57;;;7.85;;
61204;SDS011;47068;55.780;37.520;2022-08-23T05:07:20;21.80;;;8.90;;
61204;SDS011;47068;55.780;37.520;2022-08-23T05:09:45;16.30;;;8.27;;
61204;SDS011;47068;55.780;37.520;2022-08-23T05:12:11;16.00;;;7.78;;
61204;SDS011;47068;55.780;37.520;2022-08-23T05:14:36;24.52;;;9.70;;
61204;SDS011;47068;55.780;37.520;2022-08-23T05:17:02;23.88;;;8.52;;
61204;SDS011;47068;55.780;37.520;2022-08-23T05:19:28;14.68;;;7.32;;
61204;SDS011;47068;55.780;37.520;2022-08-23T05:21:54;13.13;;;7.70;;
61204;SDS011;47068;55.780;37.520;2022-08-23T05:24:19;12.45;;;7.15;;
61204;SDS011;47068;55.780;37.520;2022-08-23T05:26:45;15.98;;;7.28;;
61204;SDS011;47068;55.780;37.520;2022-08-23T05:29:13;12.75;;;7.22;;
61204;SDS011;47068;55.780;37.520;2022-08-23T05:31:41;20.83;;;7.97;;
61204;SDS011;47068;55.780;37.520;2022-08-23T05:34:06;18.85;;;7.57;;
61204;SDS011;47068;55.780;37.520;2022-08-23T05:36:32;17.10;;;8.82;;
61204;SDS011;47068;55.780;37.520;2022-08-23T05:39:01;20.83;;;7.78;;
61204;SDS011;47068;55.780;37.520;2022-08-23T05:41:27;14.60;;;7.63;;
61204;SDS011;47068;55.780;37.520;2022-08-23T05:43:53;14.45;;;6.95;;
61204;SDS011;47068;55.780;37.520;2022-08-23T05:46:19;15.50;;;7.20;;
61204;SDS011;47068;55.780;37.520;2022-08-23T05:48:47;15.65;;;7.00;;
61204;SDS011;47068;55.780;37.520;2022-08-23T05:53:45;19.25;;;7.00;;
61204;SDS011;47068;55.780;37.520;2022-08-23T05:56:13;15.30;;;7.22;;
61204;SDS011;47068;55.780;37.520;2022-08-23T05:58:41;13.15;;;6.60;;
61204;SDS011;47068;55.780;37.520;2022-08-23T06:01:09;14.68;;;7.55;;
61204;SDS011;47068;55.780;37.520;2022-08-23T06:03:35;10.48;;;6.75;;
61204;SDS011;47068;55.780;37.520;2022-08-23T06:06:02;15.93;;;7.28;;
61204;SDS011;47068;55.780;37.520;2022-08-23T06:08:28;14.40;;;7.53;;
61204;SDS011;47068;55.780;37.520;2022-08-23T06:11:03;17.35;;;7.38;;
61204;SDS011;47068;55.780;37.520;2022-08-23T06:13:32;16.17;;;7.88;;
61204;SDS011;47068;55.780;37.520;2022-08-23T06:15:58;18.65;;;7.97;;
61204;SDS011;47068;55.780;37.520;2022-08-23T06:18:27;20.52;;;7.07;;
61204;SDS011;47068;55.780;37.520;2022-08-23T06:20:59;18.92;;;7.38;;
61204;SDS011;47068;55.780;37.520;2022-08-23T06:23:26;16.20;;;7.38;;
61204;SDS011;47068;55.780;37.520;2022-08-23T06:25:51;13.57;;;7.70;;
61204;SDS011;47068;55.780;37.520;2022-08-23T06:28:17;17.25;;;7.25;;
61204;SDS011;47068;55.780;37.520;2022-08-23T06:30:42;16.13;;;7.47;;
61204;SDS011;47068;55.780;37.520;2022-08-23T06:33:08;18.27;;;7.60;;
61204;SDS011;47068;55.780;37.520;2022-08-23T06:35:33;20.05;;;7.65;;
61204;SDS011;47068;55.780;37.520;2022-08-23T06:38:01;12.95;;;6.47;;
61204;SDS011;47068;55.780;37.520;2022-08-23T06:40:27;14.73;;;7.20;;
61204;SDS011;47068;55.780;37.520;2022-08-23T06:42:53;18.42;;;6.95;;
61204;SDS011;47068;55.780;37.520;2022-08-23T06:45:19;19.15;;;7.38;;
61204;SDS011;47068;55.780;37.520;2022-08-23T06:47:44;20.52;;;7.15;;
61204;SDS011;47068;55.780;37.520;2022-08-23T06:50:10;14.57;;;7.43;;
61204;SDS011;47068;55.780;37.520;2022-08-23T06:52:36;12.40;;;6.70;;
61204;SDS011;47068;55.780;37.520;2022-08-23T06:55:01;14.75;;;6.72;;
61204;SDS011;47068;55.780;37.520;2022-08-23T06:57:27;14.73;;;7.18;;
61204;SDS011;47068;55.780;37.520;2022-08-23T06:59:53;16.02;;;7.28;;
61204;SDS011;47068;55.780;37.520;2022-08-23T07:02:19;14.02;;;7.18;;
61204;SDS011;47068;55.780;37.520;2022-08-23T07:04:44;20.67;;;7.15;;
61204;SDS011;47068;55.780;37.520;2022-08-23T07:07:10;10.70;;;6.63;;
61204;SDS011;47068;55.780;37.520;2022-08-23T07:09:36;17.75;;;7.53;;
61204;SDS011;47068;55.780;37.520;2022-08-23T07:12:02;17.58;;;7.50;;
61204;SDS011;47068;55.780;37.520;2022-08-23T07:14:27;14.43;;;6.90;;
61204;SDS011;47068;55.780;37.520;2022-08-23T07:16:57;13.70;;;7.03;;
61204;SDS011;47068;55.780;37.520;2022-08-23T07:19:26;16.58;;;7.10;;
61204;SDS011;47068;55.780;37.520;2022-08-23T07:21:53;21.08;;;7.15;;
61204;SDS011;47068;55.780;37.520;2022-08-23T07:24:19;19.48;;;7.20;;
61204;SDS011;47068;55.780;37.520;2022-08-23T07:26:47;13.60;;;7.03;;
61204;SDS011;47068;55.780;37.520;2022-08-23T07:29:14;15.10;;;7.28;;
61204;SDS011;47068;55.780;37.520;2022-08-23T07:31:42;15.07;;;6.88;;
61204;SDS011;47068;55.780;37.520;2022-08-23T07:34:11;15.07;;;7.53;;
61204;SDS011;47068;55.780;37.520;2022-08-23T07:36:38;17.35;;;7.35;;
61204;SDS011;47068;55.780;37.520;2022-08-23T07:39:05;16.63;;;7.93;;
61204;SDS011;47068;55.780;37.520;2022-08-23T07:41:31;16.42;;;7.72;;
61204;SDS011;47068;55.780;37.520;2022-08-23T07:43:57;13.35;;;7.13;;
61204;SDS011;47068;55.780;37.520;2022-08-23T07:46:26;14.77;;;7.28;;
61204;SDS011;47068;55.780;37.520;2022-08-23T07:48:53;14.95;;;7.40;;
61204;SDS011;47068;55.780;37.520;2022-08-23T07:51:22;13.70;;;7.13;;
61204;SDS011;47068;55.780;37.520;2022-08-23T07:53:48;12.73;;;7.57;;
61204;SDS011;47068;55.780;37.520;2022-08-23T07:56:14;17.67;;;7.05;;
61204;SDS011;47068;55.780;37.520;2022-08-23T07:58:41;13.05;;;6.47;;
61204;SDS011;47068;55.780;37.520;2022-08-23T08:01:11;13.30;;;7.13;;
61204;SDS011;47068;55.780;37.520;2022-08-23T08:03:39;13.18;;;6.50;;
61204;SDS011;47068;55.780;37.520;2022-08-23T08:06:07;15.07;;;7.35;;
61204;SDS011;47068;55.780;37.520;2022-08-23T08:08:38;15.35;;;6.70;;
61204;SDS011;47068;55.780;37.520;2022-08-23T08:11:05;16.02;;;7.70;;
61204;SDS011;47068;55.780;37.520;2022-08-23T08:13:44;11.23;;;6.57;;
61204;SDS011;47068;55.780;37.520;2022-08-23T08:16:18;19.23;;;7.25;;
61204;SDS011;47068;55.780;37.520;2022-08-23T08:18:53;14.00;;;6.57;;
61204;SDS011;47068;55.780;37.520;2022-08-23T08:21:20;15.38;;;6.97;;
61204;SDS011;47068;55.780;37.520;2022-08-23T08:23:48;13.27;;;6.90;;
61204;SDS011;47068;55.780;37.520;2022-08-23T08:26:14;19.25;;;6.10;;
61204;SDS011;47068;55.780;37.520;2022-08-23T08:28:43;12.40;;;6.45;;
61204;SDS011;47068;55.780;37.520;2022-08-23T08:31:09;15.32;;;6.47;;
61204;SDS011;47068;55.780;37.520;2022-08-23T08:33:38;23.35;;;6.80;;
61204;SDS011;47068;55.780;37.520;2022-08-23T08:36:04;13.65;;;6.55;;
61204;SDS011;47068;55.780;37.520;2022-08-23T08:38:31;15.13;;;6.55;;
61204;SDS011;47068;55.780;37.520;2022-08-23T08:41:06;16.08;;;6.80;;
61204;SDS011;47068;55.780;37.520;2022-08-23T08:43:46;11.48;;;5.80;;
61204;SDS011;47068;55.780;37.520;2022-08-23T08:49:00;11.23;;;5.05;;
61204;SDS011;47068;55.780;37.520;2022-08-23T08:54:20;13.20;;;6.15;;
61204;SDS011;47068;55.780;37.520;2022-08-23T08:56:51;13.13;;;7.05;;
61204;SDS011;47068;55.780;37.520;2022-08-23T08:59:21;10.43;;;6.00;;
61204;SDS011;47068;55.780;37.520;2022-08-23T09:01:51;16.85;;;7.00;;
61204;SDS011;47068;55.780;37.520;2022-08-23T09:04:17;14.10;;;6.40;;
61204;SDS011;47068;55.780;37.520;2022-08-23T09:17:41;12.35;;;6.20;;
61204;SDS011;47068;55.780;37.520;2022-08-23T09:20:17;11.18;;;6.57;;
61204;SDS011;47068;55.780;37.520;2022-08-23T09:22:46;14.07;;;6.20;;
61204;SDS011;47068;55.780;37.520;2022-08-23T09:25:15;15.82;;;6.07;;
61204;SDS011;47068;55.780;37.520;2022-08-23T09:27:44;13.93;;;6.90;;
61204;SDS011;47068;55.780;37.520;2022-08-23T09:30:11;11.07;;;5.97;;
61204;SDS011;47068;55.780;37.520;2022-08-23T09:32:40;16.02;;;5.97;;
61204;SDS011;47068;55.780;37.520;2022-08-23T09:40:33;12.32;;;5.43;;
61204;SDS011;47068;55.780;37.520;2022-08-23T09:45:40;11.13;;;5.70;;
61204;SDS011;47068;55.780;37.520;2022-08-23T09:48:12;12.43;;;5.80;;
61204;SDS011;47068;55.780;37.520;2022-08-23T09:51:02;11.45;;;5.38;;
61204;SDS011;47068;55.780;37.520;2022-08-23T09:53:31;9.98;;;5.35;;
61204;SDS011;47068;55.780;37.520;2022-08-23T09:55:57;14.88;;;5.80;;
61204;SDS011;47068;55.780;37.520;2022-08-23T09:58:40;10.15;;;5.45;;
61204;SDS011;47068;55.780;37.520;2022-08-23T10:01:20;17.15;;;5.70;;
61204;SDS011;47068;55.780;37.520;2022-08-23T10:03:46;12.35;;;6.00;;
61204;SDS011;47068;55.780;37.520;2022-08-23T10:06:30;12.40;;;6.38;;
61204;SDS011;47068;55.780;37.520;2022-08-23T10:08:58;10.77;;;6.05;;
61204;SDS011;47068;55.780;37.520;2022-08-23T10:11:29;10.98;;;5.57;;
61204;SDS011;47068;55.780;37.520;2022-08-23T10:13:58;9.80;;;6.00;;
61204;SDS011;47068;55.780;37.520;2022-08-23T10:26:56;9.27;;;5.10;;
61204;SDS011;47068;55.780;37.520;2022-08-23T10:29:49;10.02;;;5.22;;
61204;SDS011;47068;55.780;37.520;2022-08-23T10:38:21;7.47;;;4.47;;
61204;SDS011;47068;55.780;37.520;2022-08-23T10:43:23;13.07;;;5.28;;
61204;SDS011;47068;55.780;37.520;2022-08-23T10:46:01;10.57;;;5.03;;
61204;SDS011;47068;55.780;37.520;2022-08-23T10:48:34;10.00;;;5.32;;
61204;SDS011;47068;55.780;37.520;2022-08-23T10:51:38;10.70;;;4.55;;
61204;SDS011;47068;55.780;37.520;2022-08-23T10:54:08;8.02;;;4.57;;
61204;SDS011;47068;55.780;37.520;2022-08-23T10:56:37;9.68;;;5.20;;
61204;SDS011;47068;55.780;37.520;2022-08-23T10:59:19;8.68;;;5.18;;
61204;SDS011;47068;55.780;37.520;2022-08-23T11:02:03;11.95;;;5.28;;
61204;SDS011;47068;55.780;37.520;2022-08-23T11:04:52;9.38;;;4.55;;
61204;SDS011;47068;55.780;37.520;2022-08-23T11:07:41;7.47;;;4.97;;
61204;SDS011;47068;55.780;37.520;2022-08-23T11:18:09;7.05;;;4.28;;
61204;SDS011;47068;55.780;37.520;2022-08-23T11:21:00;9.73;;;5.20;;
61204;SDS011;47068;55.780;37.520;2022-08-23T11:23:51;8.18;;;4.18;;
61204;SDS011;47068;55.780;37.520;2022-08-23T11:31:39;11.45;;;4.57;;
61204;SDS011;47068;55.780;37.520;2022-08-23T11:42:24;12.98;;;5.47;;
61204;SDS011;47068;55.780;37.520;2022-08-23T11:45:44;10.50;;;5.03;;
61204;SDS011;47068;55.780;37.520;2022-08-23T11:48:05;8.32;;;4.63;;
61204;SDS011;47068;55.780;37.520;2022-08-23T12:01:14;8.88;;;4.78;;
61204;SDS011;47068;55.780;37.520;2022-08-23T12:11:23;7.55;;;4.90;;
61204;SDS011;47068;55.780;37.520;2022-08-23T12:13:52;8.90;;;4.80;;
61204;SDS011;47068;55.780;37.520;2022-08-23T12:21:21;12.93;;;4.50;;
61204;SDS011;47068;55.780;37.520;2022-08-23T12:26:33;9.63;;;4.30;;
61204;SDS011;47068;55.780;37.520;2022-08-23T12:29:08;9.27;;;4.65;;
61204;SDS011;47068;55.780;37.520;2022-08-23T12:32:13;8.07;;;4.50;;
61204;SDS011;47068;55.780;37.520;2022-08-23T12:35:24;10.13;;;4.40;;
61204;SDS011;47068;55.780;37.520;2022-08-23T12:40:41;7.22;;;4.20;;
61204;SDS011;47068;55.780;37.520;2022-08-23T12:45:42;7.50;;;3.92;;
61204;SDS011;47068;55.780;37.520;2022-08-23T12:48:14;7.93;;;3.28;;
61204;SDS011;47068;55.780;37.520;2022-08-23T12:50:44;6.13;;;3.80;;
61204;SDS011;47068;55.780;37.520;2022-08-23T12:53:28;10.43;;;3.80;;
61204;SDS011;47068;55.780;37.520;2022-08-23T12:56:05;7.28;;;3.55;;
61204;SDS011;47068;55.780;37.520;2022-08-23T12:58:37;6.03;;;3.30;;
61204;SDS011;47068;55.780;37.520;2022-08-23T13:01:07;10.70;;;4.10;;
61204;SDS011;47068;55.780;37.520;2022-08-23T13:03:44;4.95;;;3.47;;
61204;SDS011;47068;55.780;37.520;2022-08-23T13:06:18;8.48;;;4.10;;
61204;SDS011;47068;55.780;37.520;2022-08-23T13:08:51;6.47;;;3.35;;
61204;SDS011;47068;55.780;37.520;2022-08-23T13:11:25;8.95;;;3.30;;
61204;SDS011;47068;55.780;37.520;2022-08-23T13:13:53;4.95;;;3.28;;
61204;SDS011;47068;55.780;37.520;2022-08-23T13:16:31;5.22;;;2.95;;
61204;SDS011;47068;55.780;37.520;2022-08-23T13:21:41;7.30;;;3.33;;
61204;SDS011;47068;55.780;37.520;2022-08-23T13:29:57;9.02;;;4.38;;
61204;SDS011;47068;55.780;37.520;2022-08-23T13:37:47;8.43;;;3.90;;
61204;SDS011;47068;55.780;37.520;2022-08-23T13:40:15;7.57;;;4.28;;
61204;SDS011;47068;55.780;37.520;2022-08-23T13:42:46;5.93;;;3.53;;
61204;SDS011;47068;55.780;37.520;2022-08-23T13:45:20;10.55;;;4.22;;
61204;SDS011;47068;55.780;37.520;2022-08-23T13:47:58;7.60;;;3.95;;
61204;SDS011;47068;55.780;37.520;2022-08-23T13:50:44;9.70;;;3.80;;
61204;SDS011;47068;55.780;37.520;2022-08-23T13:53:13;6.65;;;3.72;;
61204;SDS011;47068;55.780;37.520;2022-08-23T13:58:11;9.23;;;3.75;;
61204;SDS011;47068;55.780;37.520;2022-08-23T14:00:38;12.65;;;4.07;;
61204;SDS011;47068;55.780;37.520;2022-08-23T14:03:05;7.18;;;3.58;;
61204;SDS011;47068;55.780;37.520;2022-08-23T14:05:31;10.18;;;3.88;;
61204;SDS011;47068;55.780;37.520;2022-08-23T14:07:57;6.05;;;3.35;;
61204;SDS011;47068;55.780;37.520;2022-08-23T14:10:23;6.40;;;3.60;;
61204;SDS011;47068;55.780;37.520;2022-08-23T14:12:49;11.57;;;4.05;;
61204;SDS011;47068;55.780;37.520;2022-08-23T14:15:17;5.88;;;3.58;;
61204;SDS011;47068;55.780;37.520;2022-08-23T14:17:44;7.95;;;4.07;;
61204;SDS011;47068;55.780;37.520;2022-08-23T14:20:14;7.93;;;3.72;;
61204;SDS011;47068;55.780;37.520;2022-08-23T14:22:40;10.73;;;3.70;;
61204;SDS011;47068;55.780;37.520;2022-08-23T14:25:06;6.57;;;3.80;;
61204;SDS011;47068;55.780;37.520;2022-08-23T14:27:33;10.32;;;3.65;;
61204;SDS011;47068;55.780;37.520;2022-08-23T14:29:59;6.97;;;3.85;;
61204;SDS011;47068;55.780;37.520;2022-08-23T14:32:25;8.68;;;3.72;;
61204;SDS011;47068;55.780;37.520;2022-08-23T14:34:50;8.18;;;3.90;;
61204;SDS011;47068;55.780;37.520;2022-08-23T14:37:16;9.32;;;3.63;;
61204;SDS011;47068;55.780;37.520;2022-08-23T14:39:41;8.98;;;3.95;;
61204;SDS011;47068;55.780;37.520;2022-08-23T14:42:07;9.45;;;4.05;;
61204;SDS011;47068;55.780;37.520;2022-08-23T14:44:33;6.35;;;3.38;;
61204;SDS011;47068;55.780;37.520;2022-08-23T14:46:58;8.63;;;4.25;;
61204;SDS011;47068;55.780;37.520;2022-08-23T14:49:24;13.23;;;3.60;;
61204;SDS011;47068;55.780;37.520;2022-08-23T14:51:49;9.75;;;4.28;;
61204;SDS011;47068;55.780;37.520;2022-08-23T14:54:18;9.27;;;4.07;;
61204;SDS011;47068;55.780;37.520;2022-08-23T14:56:48;7.15;;;4.10;;
61204;SDS011;47068;55.780;37.520;2022-08-23T14:59:13;6.75;;;3.42;;
61204;SDS011;47068;55.780;37.520;2022-08-23T15:01:39;7.93;;;3.70;;
61204;SDS011;47068;55.780;37.520;2022-08-23T15:04:05;11.18;;;4.15;;
61204;SDS011;47068;55.780;37.520;2022-08-23T15:06:31;6.43;;;3.60;;
61204;SDS011;47068;55.780;37.520;2022-08-23T15:08:56;8.70;;;3.67;;
61204;SDS011;47068;55.780;37.520;2022-08-23T15:11:26;10.82;;;4.20;;
61204;SDS011;47068;55.780;37.520;2022-08-23T15:13:51;6.47;;;3.38;;
61204;SDS011;47068;55.780;37.520;2022-08-23T15:16:17;6.47;;;3.35;;
61204;SDS011;47068;55.780;37.520;2022-08-23T15:18:47;6.82;;;3.65;;
61204;SDS011;47068;55.780;37.520;2022-08-23T15:21:14;7.80;;;3.67;;
61204;SDS011;47068;55.780;37.520;2022-08-23T15:23:41;7.57;;;3.65;;
61204;SDS011;47068;55.780;37.520;2022-08-23T15:26:08;5.25;;;3.47;;
61204;SDS011;47068;55.780;37.520;2022-08-23T15:28:34;7.10;;;3.60;;
61204;SDS011;47068;55.780;37.520;2022-08-23T15:31:00;9.85;;;3.50;;
61204;SDS011;47068;55.780;37.520;2022-08-23T15:33:26;10.95;;;3.70;;
61204;SDS011;47068;55.780;37.520;2022-08-23T15:35:54;11.30;;;4.03;;
61204;SDS011;47068;55.780;37.520;2022-08-23T15:38:21;6.47;;;3.75;;
61204;SDS011;47068;55.780;37.520;2022-08-23T15:40:49;11.23;;;3.90;;
61204;SDS011;47068;55.780;37.520;2022-08-23T15:43:17;10.35;;;4.32;;
61204;SDS011;47068;55.780;37.520;2022-08-23T15:45:43;7.80;;;3.65;;
61204;SDS011;47068;55.780;37.520;2022-08-23T15:48:14;7.07;;;3.38;;
61204;SDS011;47068;55.780;37.520;2022-08-23T15:53:11;8.90;;;3.53;;
61204;SDS011;47068;55.780;37.520;2022-08-23T15:55:37;7.00;;;3.88;;
61204;SDS011;47068;55.780;37.520;2022-08-23T15:58:04;5.38;;;3.60;;
61204;SDS011;47068;55.780;37.520;2022-08-23T16:00:29;6.57;;;4.13;;
61204;SDS011;47068;55.780;37.520;2022-08-23T16:02:55;8.38;;;3.47;;
61204;SDS011;47068;55.780;37.520;2022-08-23T16:05:21;8.27;;;3.70;;
61204;SDS011;47068;55.780;37.520;2022-08-23T16:07:47;9.80;;;4.18;;
61204;SDS011;47068;55.780;37.520;2022-08-23T16:10:16;8.63;;;3.25;;
61204;SDS011;47068;55.780;37.520;2022-08-23T16:12:42;6.85;;;3.65;;
61204;SDS011;47068;55.780;37.520;2022-08-23T16:15:07;6.68;;;3.28;;
61204;SDS011;47068;55.780;37.520;2022-08-23T16:17:34;6.80;;;3.70;;
61204;SDS011;47068;55.780;37.520;2022-08-23T16:20:00;5.90;;;3.40;;
61204;SDS011;47068;55.780;37.520;2022-08-23T16:22:26;7.43;;;3.85;;
61204;SDS011;47068;55.780;37.520;2022-08-23T16:24:52;6.90;;;3.75;;
61204;SDS011;47068;55.780;37.520;2022-08-23T16:27:19;7.45;;;3.83;;
61204;SDS011;47068;55.780;37.520;2022-08-23T16:29:46;7.53;;;4.07;;
61204;SDS011;47068;55.780;37.520;2022-08-23T16:32:12;11.00;;;4.07;;
61204;SDS011;47068;55.780;37.520;2022-08-23T16:34:37;9.25;;;3.90;;
61204;SDS011;47068;55.780;37.520;2022-08-23T16:37:04;9.00;;;4.60;;
61204;SDS011;47068;55.780;37.520;2022-08-23T16:39:31;8.90;;;4.20;;
61204;SDS011;47068;55.780;37.520;2022-08-23T16:41:58;8.48;;;3.85;;
61204;SDS011;47068;55.780;37.520;2022-08-23T16:44:26;9.88;;;3.88;;
61204;SDS011;47068;55.780;37.520;2022-08-23T16:46:54;12.40;;;4.03;;
61204;SDS011;47068;55.780;37.520;2022-08-23T16:49:23;21.05;;;5.60;;
61204;SDS011;47068;55.780;37.520;2022-08-23T16:51:49;11.73;;;5.32;;
61204;SDS011;47068;55.780;37.520;2022-08-23T16:54:15;10.90;;;6.05;;
61204;SDS011;47068;55.780;37.520;2022-08-23T16:56:43;13.10;;;6.55;;
61204;SDS011;47068;55.780;37.520;2022-08-23T16:59:09;20.45;;;9.38;;
61204;SDS011;47068;55.780;37.520;2022-08-23T17:01:50;12.82;;;6.32;;
61204;SDS011;47068;55.780;37.520;2022-08-23T17:04:18;21.33;;;10.05;;
61204;SDS011;47068;55.780;37.520;2022-08-23T17:06:48;17.60;;;9.32;;
61204;SDS011;47068;55.780;37.520;2022-08-23T17:09:14;16.95;;;8.63;;
61204;SDS011;47068;55.780;37.520;2022-08-23T17:11:40;18.05;;;9.40;;
61204;SDS011;47068;55.780;37.520;2022-08-23T17:14:07;28.08;;;14.93;;
61204;SDS011;47068;55.780;37.520;2022-08-23T17:16:33;24.33;;;13.60;;
61204;SDS011;47068;55.780;37.520;2022-08-23T17:18:59;38.67;;;19.73;;
61204;SDS011;47068;55.780;37.520;2022-08-23T17:21:25;34.85;;;15.60;;
61204;SDS011;47068;55.780;37.520;2022-08-23T17:23:51;28.27;;;14.70;;
61204;SDS011;47068;55.780;37.520;2022-08-23T17:26:17;38.50;;;19.42;;